createdAt,value
2023-05-21T00:00:30.626Z,8.86
2023-05-21T00:01:30.943Z,8.17
2023-05-21T00:02:29.768Z,9.88
2023-05-21T00:03:30.008Z,11.22
2023-05-21T00:04:29.851Z,11.15
2023-05-21T00:06:50.124Z,19.38
2023-05-21T00:07:49.850Z,13.27
2023-05-21T00:08:50.976Z,13.08
2023-05-21T00:11:08.781Z,13.65
2023-05-21T00:12:09.952Z,12.75
2023-05-21T00:13:08.878Z,11.57
2023-05-21T00:14:08.696Z,11.37
2023-05-21T00:15:08.600Z,12.72
2023-05-21T00:16:09.625Z,12.42
2023-05-21T00:17:08.707Z,12.97
2023-05-21T00:18:08.678Z,13.51
2023-05-21T00:19:08.654Z,11.69
2023-05-21T00:20:08.620Z,12.61
2023-05-21T00:21:08.573Z,13.06
2023-05-21T00:22:08.582Z,12.81
2023-05-21T00:23:09.543Z,12.84
2023-05-21T00:25:28.054Z,13.11
2023-05-21T00:26:29.323Z,11.26
2023-05-21T00:27:29.082Z,11.31
2023-05-21T00:28:29.048Z,11.57
2023-05-21T00:29:29.182Z,11.91
2023-05-21T00:30:29.042Z,11.31
2023-05-21T00:31:28.222Z,12.71
2023-05-21T00:32:29.009Z,12.94
2023-05-21T00:35:27.991Z,7.46
2023-05-21T00:36:27.959Z,11.90
2023-05-21T00:38:47.077Z,11.53
2023-05-21T00:39:47.364Z,11.77
2023-05-21T00:40:47.050Z,11.16
2023-05-21T00:41:48.075Z,11.42
2023-05-21T00:42:46.995Z,11.53
2023-05-21T00:45:07.599Z,19.38
2023-05-21T00:46:07.393Z,13.19
2023-05-21T00:48:26.633Z,10.50
2023-05-21T00:50:46.006Z,11.57
2023-05-21T00:51:46.717Z,10.63
2023-05-21T00:52:46.963Z,11.13
2023-05-21T00:53:46.732Z,11.71
2023-05-21T00:54:46.778Z,11.83
2023-05-21T00:55:46.651Z,12.53
2023-05-21T00:56:45.914Z,11.88
2023-05-21T00:57:45.602Z,12.02
2023-05-21T00:58:45.833Z,11.60
2023-05-21T00:59:46.623Z,11.46
2023-05-21T01:00:45.782Z,13.28
2023-05-21T01:01:45.990Z,12.15
2023-05-21T01:02:46.772Z,11.49
2023-05-21T01:03:45.761Z,11.05
2023-05-21T01:04:45.592Z,12.19
2023-05-21T01:07:04.988Z,12.58
2023-05-21T01:08:05.809Z,13.02
2023-05-21T01:11:24.425Z,9.69
2023-05-21T01:12:24.331Z,18.24
2023-05-21T01:13:25.493Z,15.83
2023-05-21T01:14:25.345Z,17.40
2023-05-21T01:15:25.268Z,16.34
2023-05-21T01:16:25.138Z,15.02
2023-05-21T01:17:25.143Z,14.81
2023-05-21T01:18:24.290Z,14.10
2023-05-21T01:19:24.209Z,14.71
2023-05-21T01:20:25.089Z,15.18
2023-05-21T01:21:25.293Z,14.09
2023-05-21T01:22:24.065Z,14.32
2023-05-21T01:23:24.288Z,14.23
2023-05-21T01:24:25.341Z,13.43
2023-05-21T01:25:24.032Z,14.73
2023-05-21T01:26:25.241Z,14.80
2023-05-21T01:27:25.189Z,14.81
2023-05-21T01:28:25.074Z,16.59
2023-05-21T01:30:43.586Z,12.89
2023-05-21T01:31:43.775Z,15.05
2023-05-21T01:32:43.748Z,13.76
2023-05-21T01:33:43.494Z,12.71
2023-05-21T01:34:43.503Z,13.33
2023-05-21T01:37:03.107Z,12.98
2023-05-21T01:38:03.271Z,12.99
2023-05-21T01:39:03.151Z,13.14
2023-05-21T01:40:02.997Z,12.87
2023-05-21T01:41:04.044Z,12.22
2023-05-21T01:42:03.058Z,11.50
2023-05-21T01:43:03.972Z,11.66
2023-05-21T01:44:04.182Z,11.89
2023-05-21T01:45:04.074Z,11.26
2023-05-21T01:46:03.180Z,11.37
2023-05-21T01:48:23.532Z,7.07
2023-05-21T01:49:23.206Z,11.56
2023-05-21T01:50:23.353Z,9.53
2023-05-21T01:51:24.144Z,10.37
2023-05-21T01:52:24.155Z,10.63
2023-05-21T01:53:23.074Z,12.40
2023-05-21T01:54:24.125Z,15.03
2023-05-21T01:55:24.133Z,13.83
2023-05-21T01:56:23.137Z,13.28
2023-05-21T01:58:42.611Z,13.32
2023-05-21T01:59:43.489Z,13.45
2023-05-21T02:00:43.692Z,13.06
2023-05-21T02:01:42.476Z,13.15
2023-05-21T02:02:42.413Z,12.14
2023-05-21T02:03:42.402Z,12.27
2023-05-21T02:06:01.761Z,11.88
2023-05-21T02:08:21.270Z,12.63
2023-05-21T02:12:40.563Z,17.42
2023-05-21T02:13:41.336Z,13.74
2023-05-21T02:14:40.569Z,13.62
2023-05-21T02:15:41.368Z,12.51
2023-05-21T02:16:40.374Z,13.53
2023-05-21T02:17:41.298Z,13.63
2023-05-21T02:18:41.249Z,12.94
2023-05-21T02:19:41.223Z,13.55
2023-05-21T02:20:40.273Z,12.18
2023-05-21T02:21:41.209Z,13.54
2023-05-21T02:22:41.226Z,13.17
2023-05-21T02:23:41.278Z,13.87
2023-05-21T02:25:59.400Z,13.22
2023-05-21T02:26:59.466Z,12.45
2023-05-21T02:27:59.339Z,12.58
2023-05-21T02:30:18.497Z,13.68
2023-05-21T02:31:18.432Z,12.36
2023-05-21T02:32:18.171Z,13.60
2023-05-21T02:34:37.775Z,12.88
2023-05-21T02:35:37.917Z,13.64
2023-05-21T02:36:37.710Z,12.30
2023-05-21T02:37:37.473Z,11.90
2023-05-21T02:41:16.637Z,11.78
2023-05-21T02:43:36.241Z,16.12
2023-05-21T02:47:14.217Z,16.86
2023-05-21T02:48:15.231Z,14.82
2023-05-21T02:49:15.061Z,15.00
2023-05-21T02:50:15.041Z,14.32
2023-05-21T02:51:14.255Z,14.98
2023-05-21T02:52:14.206Z,14.12
2023-05-21T02:53:15.168Z,12.60
2023-05-21T02:54:14.018Z,13.25
2023-05-21T02:55:14.168Z,13.45
2023-05-21T02:56:14.038Z,12.96
2023-05-21T02:58:40.481Z,28.57
2023-05-21T02:59:41.236Z,14.96
2023-05-21T03:00:40.420Z,14.85
2023-05-21T03:01:40.153Z,13.76
2023-05-21T03:02:40.229Z,13.93
2023-05-21T03:05:36.417Z,21.36
2023-05-21T03:06:37.146Z,15.64
2023-05-21T03:20:43.270Z,17.67
2023-05-21T03:21:43.017Z,16.53
2023-05-21T03:22:43.157Z,16.77
2023-05-21T03:25:02.510Z,14.78
2023-05-21T03:26:03.650Z,16.30
2023-05-21T03:27:02.434Z,14.81
2023-05-21T03:29:21.944Z,14.75
2023-05-21T03:30:23.157Z,14.53
2023-05-21T03:32:41.804Z,15.57
2023-05-21T03:35:19.709Z,10.11
2023-05-21T03:36:19.504Z,15.84
2023-05-21T03:37:20.717Z,16.35
2023-05-21T03:38:19.603Z,15.68
2023-05-21T03:39:19.408Z,14.62
2023-05-21T03:41:39.479Z,11.63
2023-05-21T03:42:40.524Z,13.26
2023-05-21T03:46:18.777Z,15.71
2023-05-21T03:47:19.389Z,15.61
2023-05-21T03:48:18.586Z,15.47
2023-05-21T03:49:19.348Z,14.73
2023-05-21T03:50:19.235Z,13.67
2023-05-21T03:51:18.264Z,14.31
2023-05-21T03:56:16.749Z,16.60
2023-05-21T03:57:17.961Z,15.96
2023-05-21T03:58:17.671Z,14.43
2023-05-21T03:59:16.702Z,13.50
2023-05-21T04:00:16.672Z,16.24
2023-05-21T04:01:16.616Z,14.72
2023-05-21T04:02:16.732Z,13.03
2023-05-21T04:03:16.836Z,13.83
2023-05-21T04:04:16.750Z,13.08
2023-05-21T04:05:16.615Z,13.93
2023-05-21T04:06:16.604Z,13.01
2023-05-21T04:09:36.834Z,16.58
2023-05-21T04:10:37.521Z,16.19
2023-05-21T04:12:55.579Z,15.70
2023-05-21T04:13:55.752Z,15.49
2023-05-21T04:14:55.626Z,14.82
2023-05-21T04:15:55.613Z,13.73
2023-05-21T04:16:55.533Z,16.26
2023-05-21T04:17:56.524Z,14.39
2023-05-21T04:18:55.742Z,15.49
2023-05-21T04:19:55.435Z,15.60
2023-05-21T04:20:55.617Z,14.30
2023-05-21T04:21:56.434Z,15.40
2023-05-21T04:24:14.830Z,14.12
2023-05-21T04:26:33.818Z,16.82
2023-05-21T04:27:33.612Z,14.37
2023-05-21T04:28:33.861Z,15.48
2023-05-21T04:29:33.652Z,15.38
2023-05-21T04:31:53.672Z,16.29
2023-05-21T04:34:12.599Z,16.84
2023-05-21T04:35:13.714Z,14.75
2023-05-21T04:36:13.254Z,14.79
2023-05-21T04:37:13.301Z,15.58
2023-05-21T04:38:12.379Z,13.48
2023-05-21T04:39:13.254Z,16.14
2023-05-21T04:40:12.255Z,13.74
2023-05-21T04:41:12.258Z,13.46
2023-05-21T04:42:13.475Z,13.82
2023-05-21T04:43:12.416Z,13.59
2023-05-21T04:44:12.215Z,13.12
2023-05-21T04:46:32.191Z,13.08
2023-05-21T04:47:32.852Z,14.84
2023-05-21T04:48:32.066Z,15.56
2023-05-21T04:49:31.784Z,14.94
2023-05-21T04:50:32.726Z,14.27
2023-05-21T04:51:32.749Z,14.26
2023-05-21T04:53:51.488Z,16.74
2023-05-21T04:54:52.348Z,15.12
2023-05-21T04:55:52.450Z,16.22
2023-05-21T04:56:51.238Z,18.49
2023-05-21T04:59:10.667Z,15.31
2023-05-21T05:00:10.505Z,16.36
2023-05-21T05:03:09.966Z,8.95
2023-05-21T05:04:10.058Z,16.70
2023-05-21T05:05:11.022Z,15.46
2023-05-21T05:06:10.736Z,16.04
2023-05-21T05:07:10.924Z,15.43
2023-05-21T05:08:11.430Z,16.95
2023-05-21T05:09:10.935Z,15.06
2023-05-21T05:10:09.987Z,17.07
2023-05-21T05:11:09.860Z,15.98
2023-05-21T05:12:09.958Z,16.87
2023-05-21T05:13:11.148Z,15.17
2023-05-21T05:14:09.976Z,16.38
2023-05-21T05:15:10.921Z,17.11
2023-05-21T05:16:11.024Z,16.23
2023-05-21T05:17:11.106Z,15.89
2023-05-21T05:18:10.097Z,16.50
2023-05-21T05:19:10.222Z,17.77
2023-05-21T05:20:10.076Z,17.73
2023-05-21T05:21:09.957Z,16.17
2023-05-21T05:22:13.341Z,16.59
2023-05-21T05:23:11.008Z,15.40
2023-05-21T05:25:29.590Z,16.86
2023-05-21T05:26:30.690Z,15.42
2023-05-21T05:27:29.584Z,15.84
2023-05-21T05:28:29.675Z,16.51
2023-05-21T05:32:08.457Z,18.00
2023-05-21T05:33:09.479Z,14.99
2023-05-21T05:34:09.364Z,16.95
2023-05-21T05:35:08.351Z,15.96
2023-05-21T05:37:28.099Z,12.62
2023-05-21T05:38:28.834Z,13.13
2023-05-21T05:39:28.860Z,13.83
2023-05-21T05:40:28.652Z,12.84
2023-05-21T05:41:27.576Z,13.10
2023-05-21T05:42:28.710Z,14.02
2023-05-21T05:44:46.726Z,14.18
2023-05-21T05:45:46.875Z,14.28
2023-05-21T05:46:47.664Z,15.39
2023-05-21T05:47:46.809Z,13.70
2023-05-21T05:48:47.611Z,15.81
2023-05-21T05:49:46.544Z,15.05
2023-05-21T05:50:46.626Z,15.03
2023-05-21T05:51:46.558Z,15.63
2023-05-21T05:52:46.746Z,15.44
2023-05-21T05:53:46.551Z,15.57
2023-05-21T05:54:46.549Z,15.35
2023-05-21T05:55:46.563Z,17.31
2023-05-21T05:56:46.710Z,15.38
2023-05-21T05:57:46.502Z,16.32
2023-05-21T05:58:46.783Z,16.22
2023-05-21T05:59:46.516Z,14.92
2023-05-21T06:00:46.801Z,16.47
2023-05-21T06:01:46.637Z,14.25
2023-05-21T06:02:47.762Z,14.19
2023-05-21T06:03:46.797Z,12.71
2023-05-21T06:04:46.664Z,13.58
2023-05-21T06:05:46.776Z,13.27
2023-05-21T06:06:46.659Z,13.52
2023-05-21T06:10:25.325Z,12.31
2023-05-21T06:11:26.032Z,17.54
2023-05-21T06:14:59.058Z,18.22
2023-05-21T06:15:59.111Z,17.09
2023-05-21T06:17:00.142Z,16.20
2023-05-21T06:17:58.836Z,15.66
2023-05-21T06:20:18.530Z,15.86
2023-05-21T06:21:19.223Z,17.39
2023-05-21T06:22:19.368Z,13.19
2023-05-21T06:23:19.137Z,14.16
2023-05-21T06:24:19.128Z,13.90
2023-05-21T06:26:37.637Z,12.19
2023-05-21T06:27:38.420Z,12.50
2023-05-21T06:28:38.598Z,13.33
2023-05-21T06:29:38.362Z,14.71
2023-05-21T06:30:37.453Z,12.72
2023-05-21T06:32:57.073Z,15.22
2023-05-21T06:33:57.878Z,13.19
2023-05-21T06:34:57.996Z,13.61
2023-05-21T06:35:56.725Z,14.82
2023-05-21T06:36:57.653Z,13.74
2023-05-21T06:37:56.716Z,15.37
2023-05-21T06:38:56.659Z,14.58
2023-05-21T06:39:57.654Z,13.77
2023-05-21T06:40:57.763Z,16.02
2023-05-21T06:41:56.689Z,16.23
2023-05-21T06:42:56.656Z,14.27
2023-05-21T06:43:56.624Z,14.94
2023-05-21T06:44:56.802Z,15.16
2023-05-21T06:45:57.741Z,15.44
2023-05-21T06:46:56.628Z,15.54
2023-05-21T06:47:57.814Z,15.91
2023-05-21T06:48:57.660Z,15.18
2023-05-21T06:49:56.601Z,15.95
2023-05-21T06:50:56.559Z,15.48
2023-05-21T06:53:16.141Z,16.39
2023-05-21T06:54:17.192Z,15.93
2023-05-21T06:55:16.910Z,15.52
2023-05-21T06:56:16.907Z,14.92
2023-05-21T06:57:16.948Z,15.09
2023-05-21T06:58:16.903Z,15.89
2023-05-21T07:00:35.695Z,14.50
2023-05-21T07:05:34.121Z,12.41
2023-05-21T07:06:34.161Z,12.92
2023-05-21T07:07:49.688Z,12.20
2023-05-21T07:11:23.271Z,15.22
2023-05-21T07:12:24.117Z,14.15
2023-05-21T07:13:23.228Z,12.80
2023-05-21T07:14:22.980Z,12.38
2023-05-21T07:15:23.923Z,12.48
2023-05-21T07:16:23.010Z,12.42
2023-05-21T07:17:22.928Z,11.90
2023-05-21T07:18:23.001Z,13.51
2023-05-21T07:19:23.984Z,12.18
2023-05-21T07:20:23.973Z,12.58
2023-05-21T07:21:22.905Z,12.12
2023-05-21T07:23:42.548Z,13.20
2023-05-21T07:24:42.304Z,12.32
2023-05-21T07:25:42.454Z,13.95
2023-05-21T07:26:43.256Z,13.68
2023-05-21T07:27:43.247Z,12.50
2023-05-21T07:28:42.294Z,12.70
2023-05-21T07:29:43.196Z,12.58
2023-05-21T07:30:42.249Z,13.08
2023-05-21T07:31:42.278Z,13.77
2023-05-21T07:32:43.348Z,12.41
2023-05-21T07:33:43.222Z,13.54
2023-05-21T07:34:42.155Z,13.20
2023-05-21T07:37:26.315Z,18.09
2023-05-21T07:38:27.067Z,13.41
2023-05-21T07:39:27.309Z,14.09
2023-05-21T07:40:27.014Z,13.87
2023-05-21T07:42:45.177Z,13.33
2023-05-21T07:43:46.224Z,13.60
2023-05-21T07:44:44.898Z,14.47
2023-05-21T07:45:45.951Z,14.45
2023-05-21T07:46:46.036Z,15.86
2023-05-21T07:47:46.026Z,13.78
2023-05-21T07:48:44.855Z,14.10
2023-05-21T07:51:23.161Z,11.02
2023-05-21T07:52:22.939Z,13.20
2023-05-21T07:53:23.956Z,13.72
2023-05-21T07:54:22.738Z,13.29
2023-05-21T07:55:23.819Z,13.63
2023-05-21T07:56:23.768Z,14.56
2023-05-21T07:57:22.923Z,13.10
2023-05-21T07:58:23.903Z,13.96
2023-05-21T07:59:22.783Z,13.92
2023-05-21T08:00:22.713Z,14.54
2023-05-21T08:01:22.677Z,13.41
2023-05-21T08:03:42.415Z,14.23
2023-05-21T08:04:42.195Z,14.67
2023-05-21T08:05:42.332Z,14.28
2023-05-21T08:06:43.087Z,12.70
2023-05-21T08:07:43.060Z,12.90
2023-05-21T08:08:41.989Z,13.97
2023-05-21T08:09:42.188Z,13.74
2023-05-21T08:10:43.102Z,13.02
2023-05-21T08:13:00.875Z,13.11
2023-05-21T08:15:20.248Z,13.21
2023-05-21T08:16:20.448Z,12.77
2023-05-21T08:17:21.225Z,14.20
2023-05-21T08:18:21.183Z,13.14
2023-05-21T08:19:20.202Z,12.50
2023-05-21T08:20:20.128Z,11.86
2023-05-21T08:21:21.231Z,13.45
2023-05-21T08:22:21.121Z,12.79
2023-05-21T08:23:21.364Z,12.81
2023-05-21T08:24:21.321Z,13.17
2023-05-21T08:25:21.317Z,12.24
2023-05-21T08:26:20.116Z,12.60
2023-05-21T08:27:20.087Z,12.75
2023-05-21T08:30:58.242Z,13.61
2023-05-21T08:31:58.446Z,11.93
2023-05-21T08:32:59.232Z,11.19
2023-05-21T08:33:58.213Z,11.48
2023-05-21T08:34:58.364Z,11.87
2023-05-21T08:35:59.348Z,11.45
2023-05-21T08:36:58.258Z,12.74
2023-05-21T08:37:58.345Z,11.16
2023-05-21T08:38:59.109Z,11.81
2023-05-21T08:39:58.192Z,12.61
2023-05-21T08:40:58.115Z,12.69
2023-05-21T08:41:59.128Z,12.50
2023-05-21T08:42:58.215Z,11.24
2023-05-21T08:43:58.212Z,12.04
2023-05-21T08:44:58.216Z,10.24
2023-05-21T08:47:24.296Z,15.23
2023-05-21T08:48:25.092Z,10.74
2023-05-21T08:49:25.726Z,10.93
2023-05-21T08:50:25.051Z,11.64
2023-05-21T08:51:23.939Z,10.85
2023-05-21T08:52:23.975Z,10.27
2023-05-21T08:53:28.635Z,11.37
2023-05-21T08:54:24.916Z,11.59
2023-05-21T08:55:25.885Z,10.65
2023-05-21T08:56:24.995Z,9.92
2023-05-21T08:57:25.003Z,9.27
2023-05-21T08:58:23.884Z,8.82
2023-05-21T08:59:24.885Z,10.00
2023-05-21T09:00:24.968Z,9.52
2023-05-21T09:01:26.438Z,9.08
2023-05-21T09:04:01.712Z,30.66
2023-05-21T09:04:56.595Z,9.65
2023-05-21T09:05:55.242Z,8.75
2023-05-21T09:06:55.212Z,10.12
2023-05-21T09:16:30.681Z,23.88
2023-05-21T09:17:30.496Z,10.54
2023-05-21T09:18:30.604Z,10.57
2023-05-21T09:20:49.755Z,13.06
2023-05-21T09:21:50.647Z,12.03
2023-05-21T09:22:50.761Z,11.25
2023-05-21T09:29:31.998Z,12.76
2023-05-21T09:32:25.239Z,15.34
2023-05-21T09:33:25.173Z,11.05
2023-05-21T09:34:26.127Z,12.78
2023-05-21T09:35:24.938Z,11.32
2023-05-21T09:36:25.941Z,11.12
2023-05-21T09:37:27.469Z,10.95
2023-05-21T09:43:14.758Z,12.63
2023-05-21T09:46:53.183Z,11.05
2023-05-21T09:47:52.913Z,10.69
2023-05-21T09:48:53.069Z,10.70
2023-05-21T09:49:53.884Z,10.87
2023-05-21T09:50:52.900Z,9.85
2023-05-21T09:51:53.851Z,10.02
2023-05-21T09:52:54.032Z,10.51
2023-05-21T09:53:52.804Z,10.26
2023-05-21T09:54:54.079Z,9.09
2023-05-21T09:55:52.772Z,9.92
2023-05-21T09:56:53.789Z,10.43
2023-05-21T09:57:52.772Z,9.97
2023-05-21T09:58:52.780Z,10.89
2023-05-21T09:59:53.954Z,10.00
2023-05-21T10:00:53.737Z,9.66
2023-05-21T10:01:52.894Z,8.90
2023-05-21T10:02:53.995Z,9.16
2023-05-21T10:03:52.738Z,8.97
2023-05-21T10:04:54.132Z,9.57
2023-05-21T10:05:52.722Z,8.38
2023-05-21T10:06:53.796Z,9.43
2023-05-21T10:07:52.806Z,10.69
2023-05-21T10:08:52.994Z,10.36
2023-05-21T10:09:53.674Z,9.92
2023-05-21T10:10:53.752Z,8.99
2023-05-21T10:11:53.757Z,8.99
2023-05-21T10:12:53.817Z,9.58
2023-05-21T10:13:52.652Z,9.28
2023-05-21T10:14:52.697Z,9.41
2023-05-21T10:15:53.680Z,8.80
2023-05-21T10:16:53.639Z,8.83
2023-05-21T10:17:53.922Z,8.25
2023-05-21T10:18:53.652Z,8.23
2023-05-21T10:19:52.624Z,9.76
2023-05-21T10:22:11.688Z,9.32
2023-05-21T10:24:31.259Z,13.06
2023-05-21T10:25:31.378Z,9.83
2023-05-21T10:26:31.198Z,9.72
2023-05-21T10:27:32.445Z,9.81
2023-05-21T10:28:31.264Z,8.54
2023-05-21T10:29:32.257Z,9.19
2023-05-21T10:30:31.166Z,10.04
2023-05-21T10:31:32.300Z,9.37
2023-05-21T10:32:31.182Z,9.39
2023-05-21T10:33:32.288Z,9.71
2023-05-21T10:34:31.165Z,9.60
2023-05-21T10:37:22.398Z,8.20
2023-05-21T10:38:22.339Z,9.43
2023-05-21T10:39:22.252Z,9.51
2023-05-21T10:40:22.259Z,9.09
2023-05-21T10:41:22.043Z,9.63
2023-05-21T10:42:22.049Z,9.70
2023-05-21T10:44:41.296Z,9.89
2023-05-21T10:45:42.218Z,10.23
2023-05-21T10:46:42.277Z,10.99
2023-05-21T10:47:41.022Z,9.25
2023-05-21T10:48:41.045Z,9.91
2023-05-21T10:51:00.345Z,9.79
2023-05-21T10:52:01.204Z,9.97
2023-05-21T10:53:00.346Z,9.66
2023-05-21T10:55:19.550Z,10.06
2023-05-21T10:56:19.634Z,9.44
2023-05-21T10:57:19.385Z,9.94
2023-05-21T10:58:20.339Z,10.15
2023-05-21T10:59:20.370Z,9.90
2023-05-21T11:00:19.311Z,10.19
2023-05-21T11:01:19.474Z,9.34
2023-05-21T11:02:20.460Z,8.67
2023-05-21T11:03:20.468Z,8.89
2023-05-21T11:04:20.343Z,8.80
2023-05-21T11:05:20.311Z,9.37
2023-05-21T11:06:19.266Z,9.20
2023-05-21T11:07:20.354Z,9.12
2023-05-21T11:08:19.352Z,9.74
2023-05-21T11:09:19.397Z,8.83
2023-05-21T11:10:19.329Z,9.14
2023-05-21T11:11:19.453Z,9.54
2023-05-21T11:12:19.261Z,9.51
2023-05-21T11:13:20.256Z,9.96
2023-05-21T11:14:20.873Z,9.84
2023-05-21T11:15:19.202Z,9.98
2023-05-21T11:16:20.260Z,11.02
2023-05-21T11:17:19.234Z,12.61
2023-05-21T11:18:20.188Z,11.04
2023-05-21T11:19:20.250Z,10.76
2023-05-21T11:20:20.208Z,11.21
2023-05-21T11:21:19.172Z,9.69
2023-05-21T11:22:20.193Z,10.14
2023-05-21T11:23:19.165Z,9.43
2023-05-21T11:24:20.159Z,9.95
2023-05-21T11:25:19.215Z,9.28
2023-05-21T11:26:20.253Z,8.85
2023-05-21T11:27:19.152Z,9.44
2023-05-21T11:28:20.147Z,9.29
2023-05-21T11:29:20.160Z,10.07
2023-05-21T11:30:19.139Z,10.23
2023-05-21T11:31:19.254Z,9.68
2023-05-21T11:35:07.688Z,8.20
2023-05-21T11:36:07.729Z,9.37
2023-05-21T11:37:08.499Z,9.25
2023-05-21T11:39:26.546Z,9.03
2023-05-21T11:40:26.593Z,9.25
2023-05-21T11:41:26.416Z,9.54
2023-05-21T11:42:26.243Z,8.52
2023-05-21T11:43:26.277Z,8.92
2023-05-21T11:44:26.321Z,8.65
2023-05-21T11:45:26.478Z,8.84
2023-05-21T11:46:27.270Z,8.55
2023-05-21T11:47:26.370Z,8.36
2023-05-21T11:48:27.373Z,8.36
2023-05-21T11:49:27.144Z,8.04
2023-05-21T11:50:27.224Z,7.87
2023-05-21T11:51:27.180Z,8.62
2023-05-21T11:52:27.129Z,8.17
2023-05-21T11:53:26.134Z,8.69
2023-05-21T11:54:27.138Z,7.84
2023-05-21T12:01:19.632Z,12.76
2023-05-21T12:02:20.554Z,10.02
2023-05-21T12:03:20.812Z,7.73
2023-05-21T12:04:20.467Z,7.92
2023-05-21T12:05:19.563Z,8.51
2023-05-21T12:06:19.422Z,8.33
2023-05-21T12:07:19.390Z,7.95
2023-05-21T12:08:19.427Z,8.70
2023-05-21T12:09:20.392Z,7.70
2023-05-21T12:10:20.439Z,7.50
2023-05-21T12:11:20.366Z,6.89
2023-05-21T12:12:19.444Z,7.34
2023-05-21T12:13:20.291Z,7.94
2023-05-21T12:14:19.387Z,8.02
2023-05-21T12:15:19.281Z,7.88
2023-05-21T12:16:19.370Z,7.45
2023-05-21T12:17:19.447Z,8.09
2023-05-21T12:18:19.238Z,6.26
2023-05-21T12:19:20.340Z,6.12
2023-05-21T12:20:20.539Z,6.24
2023-05-21T12:21:19.709Z,6.48
2023-05-21T12:22:19.499Z,6.69
2023-05-21T12:23:19.433Z,6.37
2023-05-21T12:24:20.541Z,7.20
2023-05-21T12:25:20.946Z,6.60
2023-05-21T12:26:19.609Z,7.07
2023-05-21T12:27:19.619Z,7.37
2023-05-21T12:28:19.653Z,6.83
2023-05-21T12:29:19.802Z,7.06
2023-05-21T12:30:19.723Z,7.09
2023-05-21T12:31:20.626Z,6.14
2023-05-21T12:32:20.746Z,6.04
2023-05-21T12:33:19.712Z,6.21
2023-05-21T12:34:19.822Z,6.07
2023-05-21T12:35:19.977Z,5.75
2023-05-21T12:36:19.805Z,6.77
2023-05-21T12:37:20.751Z,6.20
2023-05-21T12:38:19.985Z,6.45
2023-05-21T12:43:48.088Z,6.00
2023-05-21T12:46:06.639Z,6.31
2023-05-21T12:47:07.722Z,7.65
2023-05-21T12:48:06.546Z,6.20
2023-05-21T12:49:06.492Z,6.97
2023-05-21T12:50:06.451Z,6.20
2023-05-21T12:52:25.695Z,5.93
2023-05-21T12:53:26.408Z,6.19
2023-05-21T12:54:25.606Z,6.02
2023-05-21T12:55:25.533Z,6.62
2023-05-21T12:56:25.365Z,5.69
2023-05-21T13:05:40.998Z,12.49
2023-05-21T13:06:40.766Z,7.39
2023-05-21T13:07:40.971Z,6.18
2023-05-21T13:08:41.753Z,6.64
2023-05-21T13:09:40.768Z,5.54
2023-05-21T13:10:40.759Z,5.37
2023-05-21T13:11:41.742Z,6.22
2023-05-21T13:12:42.201Z,6.26
2023-05-21T13:13:40.620Z,5.51
2023-05-21T13:14:40.843Z,6.65
2023-05-21T13:15:41.869Z,6.25
2023-05-21T13:16:41.569Z,6.87
2023-05-21T13:17:40.700Z,6.57
2023-05-21T13:18:40.662Z,6.50
2023-05-21T13:19:41.568Z,5.61
2023-05-21T13:20:40.585Z,6.04
2023-05-21T13:21:41.005Z,5.82
2023-05-21T13:23:59.588Z,6.54
2023-05-21T13:24:59.553Z,5.80
2023-05-21T13:25:59.286Z,6.42
2023-05-21T13:27:00.371Z,6.40
2023-05-21T13:27:59.259Z,6.19
2023-05-21T13:28:59.271Z,6.50
2023-05-21T13:31:18.616Z,7.70
2023-05-21T13:33:40.101Z,17.61
2023-05-21T13:34:39.867Z,7.47
2023-05-21T13:35:39.732Z,6.36
2023-05-21T13:36:40.698Z,6.17
2023-05-21T13:37:40.952Z,6.48
2023-05-21T13:38:39.773Z,6.34
2023-05-21T13:39:39.673Z,5.90
2023-05-21T13:40:40.989Z,6.30
2023-05-21T13:41:39.680Z,6.05
2023-05-21T13:42:39.744Z,5.81
2023-05-21T13:43:40.704Z,6.12
2023-05-21T13:44:40.639Z,6.46
2023-05-21T13:45:39.653Z,5.97
2023-05-21T13:46:39.744Z,6.83
2023-05-21T13:47:40.592Z,6.38
2023-05-21T13:48:39.699Z,5.74
2023-05-21T13:49:39.668Z,7.31
2023-05-21T13:50:39.645Z,7.73
2023-05-21T13:51:40.595Z,5.57
2023-05-21T13:52:40.573Z,5.59
2023-05-21T13:53:40.593Z,6.29
2023-05-21T13:54:39.608Z,6.25
2023-05-21T13:55:39.660Z,6.25
2023-05-21T13:58:05.956Z,12.76
2023-05-21T13:59:05.733Z,6.52
2023-05-21T14:00:06.868Z,6.33
2023-05-21T14:01:06.983Z,6.71
2023-05-21T14:02:06.659Z,6.41
2023-05-21T14:03:05.672Z,6.95
2023-05-21T14:04:05.728Z,7.10
2023-05-21T14:05:05.667Z,8.40
2023-05-21T14:07:25.143Z,6.91
2023-05-21T14:08:24.831Z,7.87
2023-05-21T14:09:25.061Z,8.39
2023-05-21T14:10:25.842Z,7.19
2023-05-21T14:11:24.844Z,6.17
2023-05-21T14:12:25.705Z,6.48
2023-05-21T14:13:24.732Z,7.14
2023-05-21T14:14:25.796Z,8.84
2023-05-21T14:15:24.781Z,8.68
2023-05-21T14:16:24.767Z,9.75
2023-05-21T14:17:24.717Z,7.96
2023-05-21T14:18:24.661Z,7.59
2023-05-21T14:19:24.755Z,6.73
2023-05-21T14:20:25.733Z,6.67
2023-05-21T14:21:25.637Z,6.76
2023-05-21T14:22:24.761Z,5.73
2023-05-21T14:23:24.664Z,5.64
2023-05-21T14:24:24.616Z,6.18
2023-05-21T14:25:24.639Z,7.04
2023-05-21T14:26:25.645Z,5.79
2023-05-21T14:28:43.962Z,6.37
2023-05-21T14:29:44.076Z,5.70
2023-05-21T14:35:19.841Z,8.44
2023-05-21T14:36:19.995Z,7.48
2023-05-21T14:37:19.731Z,7.07
2023-05-21T14:38:19.732Z,6.90
2023-05-21T14:39:20.777Z,6.71
2023-05-21T14:40:20.868Z,6.22
2023-05-21T14:41:19.722Z,6.10
2023-05-21T14:42:19.738Z,6.43
2023-05-21T15:01:01.142Z,13.40
2023-05-21T15:02:00.965Z,7.47
2023-05-21T15:04:50.543Z,17.26
2023-05-21T15:05:50.388Z,6.54
2023-05-21T15:06:51.555Z,6.82
2023-05-21T15:07:50.334Z,5.99
2023-05-21T15:08:50.254Z,6.01
2023-05-21T15:09:50.301Z,5.46
2023-05-21T15:10:50.257Z,6.30
2023-05-21T15:11:51.280Z,5.91
2023-05-21T15:12:51.299Z,5.80
2023-05-21T15:13:51.459Z,6.06
2023-05-21T15:14:51.273Z,5.68
2023-05-21T15:15:50.386Z,6.08
2023-05-21T15:16:51.416Z,5.26
2023-05-21T15:17:50.319Z,5.20
2023-05-21T15:18:51.253Z,6.03
2023-05-21T15:19:50.170Z,5.51
2023-05-21T15:20:50.321Z,5.69
2023-05-21T15:21:51.187Z,5.43
2023-05-21T15:22:52.350Z,5.83
2023-05-21T15:25:09.513Z,7.53
2023-05-21T15:26:09.417Z,5.41
2023-05-21T15:27:10.467Z,5.57
2023-05-21T15:28:09.233Z,5.68
2023-05-21T15:29:09.180Z,5.82
2023-05-21T15:31:28.072Z,5.51
2023-05-21T15:32:28.975Z,5.86
2023-05-21T15:33:27.859Z,5.88
2023-05-21T15:34:29.093Z,5.15
2023-05-21T15:35:28.947Z,6.04
2023-05-21T15:36:27.789Z,5.55
2023-05-21T15:37:28.812Z,5.09
2023-05-21T15:38:27.801Z,5.76
2023-05-21T15:41:17.772Z,9.05
2023-05-21T15:42:17.604Z,6.66
2023-05-21T15:43:18.689Z,5.62
2023-05-21T15:44:18.564Z,5.61
2023-05-21T15:45:17.474Z,5.83
2023-05-21T15:46:18.544Z,5.63
2023-05-21T15:47:17.440Z,5.93
2023-05-21T15:49:36.734Z,5.25
2023-05-21T15:50:37.853Z,4.71
2023-05-21T15:51:37.637Z,5.42
2023-05-21T15:52:36.750Z,5.59
2023-05-21T15:53:36.695Z,5.55
2023-05-21T15:54:37.568Z,5.08
2023-05-21T15:55:38.074Z,5.55
2023-05-21T15:56:36.711Z,5.20
2023-05-21T15:57:37.721Z,5.28
2023-05-21T15:58:36.545Z,4.92
2023-05-21T15:59:37.723Z,5.15
2023-05-21T16:00:36.556Z,4.99
2023-05-21T16:01:36.625Z,5.26
2023-05-21T16:02:37.695Z,4.50
2023-05-21T16:03:37.787Z,5.07
2023-05-21T16:04:36.505Z,4.83
2023-05-21T16:05:36.759Z,4.84
2023-05-21T16:06:36.593Z,5.59
2023-05-21T16:07:38.326Z,4.66
2023-05-21T16:08:37.704Z,5.20
2023-05-21T16:09:37.715Z,4.90
2023-05-21T16:10:36.599Z,4.80
2023-05-21T16:11:36.594Z,4.62
2023-05-21T16:12:37.439Z,4.80
2023-05-21T16:13:36.505Z,4.86
2023-05-21T16:33:09.620Z,10.93
2023-05-21T16:34:10.481Z,5.58
2023-05-21T16:35:10.535Z,5.03
2023-05-21T16:36:09.366Z,4.99
2023-05-21T16:37:10.434Z,5.27
2023-05-21T16:38:09.371Z,4.71
2023-05-21T16:40:35.112Z,12.76
2023-05-21T16:41:35.026Z,5.06
2023-05-21T16:42:35.127Z,5.56
2023-05-21T16:43:35.107Z,4.71
2023-05-21T16:44:34.895Z,5.05
2023-05-21T16:45:35.139Z,5.06
2023-05-21T16:46:36.216Z,5.24
2023-05-21T16:47:35.064Z,4.66
2023-05-21T16:48:37.350Z,4.54
2023-05-21T16:49:34.857Z,4.46
2023-05-21T16:50:36.029Z,4.73
2023-05-21T16:51:34.848Z,4.35
2023-05-21T16:52:36.079Z,4.67
2023-05-21T16:53:35.900Z,4.71
2023-05-21T16:54:34.933Z,4.68
2023-05-21T16:55:36.206Z,4.75
2023-05-21T16:56:35.079Z,4.50
2023-05-21T16:57:34.807Z,4.53
2023-05-21T16:58:34.836Z,5.05
2023-05-21T16:59:34.960Z,4.64
2023-05-21T17:00:34.807Z,4.91
2023-05-21T17:01:35.998Z,4.83
2023-05-21T17:02:34.967Z,4.90